createdAt,value
2018-04-22T00:02:18.670Z,26.17
2018-04-22T00:05:22.461Z,30.53
2018-04-22T00:08:27.020Z,31.83
2018-04-22T00:11:31.570Z,26.30
2018-04-22T00:14:35.412Z,27.47
2018-04-22T00:17:39.242Z,29.63
2018-04-22T00:20:43.030Z,36.47
2018-04-22T00:23:47.593Z,27.20
2018-04-22T00:26:51.414Z,32.43
2018-04-22T00:29:55.237Z,25.40
2018-04-22T00:32:59.061Z,30.27
2018-04-22T00:36:02.866Z,27.40
2018-04-22T00:39:07.474Z,29.63
2018-04-22T00:42:11.293Z,31.03
2018-04-22T00:45:15.097Z,29.07
2018-04-22T00:48:18.999Z,30.37
2018-04-22T00:51:23.526Z,28.13
2018-04-22T00:54:28.081Z,30.20
2018-04-22T00:57:32.643Z,28.67
2018-04-22T01:00:36.757Z,27.80
2018-04-22T01:03:41.304Z,29.13
2018-04-22T01:06:45.125Z,30.77
2018-04-22T01:09:48.953Z,30.70
2018-04-22T01:12:52.748Z,30.67
2018-04-22T01:15:56.533Z,28.87
2018-04-22T01:19:00.724Z,37.07
2018-04-22T01:22:04.618Z,30.53
2018-04-22T01:25:08.429Z,30.07
2018-04-22T01:28:12.244Z,30.40
2018-04-22T01:31:16.052Z,30.53
2018-04-22T01:34:19.953Z,31.67
2018-04-22T01:37:24.484Z,30.73
2018-04-22T01:40:29.027Z,32.63
2018-04-22T01:43:33.603Z,30.97
2018-04-22T01:46:37.482Z,30.80
2018-04-22T01:49:41.289Z,32.80
2018-04-22T01:52:45.074Z,32.37
2018-04-22T01:55:48.875Z,33.03
2018-04-22T01:58:53.438Z,33.57
2018-04-22T02:01:57.220Z,31.27
2018-04-22T02:05:01.034Z,31.53
2018-04-22T02:08:04.829Z,31.93
2018-04-22T02:11:08.641Z,32.93
2018-04-22T02:14:12.444Z,34.17
2018-04-22T02:17:16.225Z,32.40
2018-04-22T02:20:20.093Z,34.27
2018-04-22T02:23:23.902Z,33.13
2018-04-22T02:26:28.421Z,32.70
2018-04-22T02:29:32.251Z,35.70
2018-04-22T02:32:36.783Z,32.53
2018-04-22T02:35:40.623Z,34.60
2018-04-22T02:38:45.182Z,32.70
2018-04-22T02:41:48.967Z,31.93
2018-04-22T02:44:52.831Z,31.47
2018-04-22T02:47:56.613Z,33.00
2018-04-22T02:51:00.418Z,33.63
2018-04-22T02:54:04.239Z,30.70
2018-04-22T02:57:08.028Z,32.17
2018-04-22T03:00:11.845Z,32.47
2018-04-22T03:03:15.637Z,32.13
2018-04-22T03:06:19.454Z,32.57
2018-04-22T03:09:23.320Z,33.40
2018-04-22T03:12:27.113Z,32.67
2018-04-22T03:15:30.956Z,31.97
2018-04-22T03:18:35.608Z,32.13
2018-04-22T03:21:40.245Z,30.40
2018-04-22T03:24:44.797Z,32.20
2018-04-22T03:27:48.583Z,33.97
2018-04-22T03:30:52.392Z,32.50
2018-04-22T03:33:56.221Z,31.17
2018-04-22T03:37:00.090Z,32.37
2018-04-22T03:40:04.762Z,33.67
2018-04-22T03:43:08.678Z,33.30
2018-04-22T03:46:12.513Z,31.73
2018-04-22T03:49:16.324Z,31.97
2018-04-22T03:52:20.136Z,31.80
2018-04-22T03:55:24.681Z,31.47
2018-04-22T03:58:28.484Z,30.93
2018-04-22T04:01:33.064Z,31.27
2018-04-22T04:04:36.874Z,30.73
2018-04-22T04:07:40.815Z,31.53
2018-04-22T04:10:45.345Z,32.13
2018-04-22T04:13:49.174Z,29.10
2018-04-22T04:16:52.994Z,30.03
2018-04-22T04:20:14.548Z,31.27
2018-04-22T04:23:18.328Z,32.07
2018-04-22T04:30:20.177Z,32.88
2018-04-22T04:33:24.004Z,29.27
2018-04-22T04:36:27.814Z,31.80
2018-04-22T04:39:32.333Z,28.43
2018-04-22T04:42:36.274Z,30.60
2018-04-22T04:45:40.138Z,28.97
2018-04-22T04:48:43.923Z,28.73
2018-04-22T04:51:47.766Z,33.37
2018-04-22T04:54:51.562Z,28.23
2018-04-22T04:57:55.370Z,28.83
2018-04-22T05:00:59.177Z,27.80
2018-04-22T05:04:02.969Z,28.90
2018-04-22T05:07:06.772Z,28.10
2018-04-22T05:10:11.324Z,30.40
2018-04-22T05:13:15.844Z,26.27
2018-04-22T05:16:19.653Z,27.63
2018-04-22T05:19:23.529Z,28.07
2018-04-22T05:22:27.334Z,29.57
2018-04-22T05:25:31.983Z,27.77
2018-04-22T05:28:36.514Z,27.17
2018-04-22T05:31:41.085Z,27.00
2018-04-22T05:34:44.882Z,28.40
2018-04-22T05:37:49.442Z,26.70
2018-04-22T05:40:53.246Z,29.43
2018-04-22T05:43:57.796Z,25.90
2018-04-22T05:47:02.392Z,26.43
2018-04-22T05:50:06.400Z,26.70
2018-04-22T05:53:10.210Z,26.03
2018-04-22T05:56:14.013Z,24.73
2018-04-22T05:59:18.579Z,25.53
2018-04-22T06:02:22.386Z,26.03
2018-04-22T06:05:26.901Z,28.77
2018-04-22T06:08:30.707Z,30.43
2018-04-22T06:11:34.538Z,26.97
2018-04-22T06:14:38.356Z,24.63
2018-04-22T06:17:42.160Z,25.97
2018-04-22T06:20:46.052Z,31.37
2018-04-22T06:23:49.833Z,29.37
2018-04-22T06:26:53.805Z,27.53
2018-04-22T06:29:57.636Z,25.23
2018-04-22T06:33:01.434Z,27.17
2018-04-22T06:36:05.273Z,25.43
2018-04-22T06:39:09.097Z,39.13
2018-04-22T06:42:13.650Z,31.87
2018-04-22T06:45:17.439Z,34.63
2018-04-22T06:48:21.245Z,30.83
2018-04-22T06:51:25.048Z,56.97
2018-04-22T06:54:28.828Z,97.30
2018-04-22T06:57:33.581Z,105.43
2018-04-22T07:00:37.385Z,89.73
2018-04-22T07:03:41.246Z,69.77
2018-04-22T07:06:45.063Z,52.23
2018-04-22T07:09:48.919Z,54.97
2018-04-22T07:12:52.775Z,52.67
2018-04-22T07:15:56.549Z,51.27
2018-04-22T07:19:00.353Z,42.77
2018-04-22T07:22:05.093Z,44.70
2018-04-22T07:25:09.685Z,41.67
2018-04-22T07:28:13.574Z,36.87
2018-04-22T07:31:17.392Z,39.03
2018-04-22T07:34:21.180Z,43.97
2018-04-22T07:37:24.993Z,37.93
2018-04-22T07:40:28.775Z,37.33
2018-04-22T07:43:32.594Z,44.50
2018-04-22T07:46:36.422Z,39.53
2018-04-22T07:49:41.870Z,69.53
2018-04-22T07:52:46.096Z,66.07
2018-04-22T07:55:50.633Z,76.13
2018-04-22T07:58:55.194Z,69.60
2018-04-22T08:01:59.010Z,69.10
2018-04-22T08:05:02.859Z,48.07
2018-04-22T08:08:06.682Z,37.13
2018-04-22T08:11:10.505Z,29.60
2018-04-22T08:14:14.452Z,28.90
2018-04-22T08:17:18.275Z,30.03
2018-04-22T08:20:22.178Z,27.77
2018-04-22T08:23:26.090Z,24.70
2018-04-22T08:26:30.619Z,19.20
2018-04-22T08:29:34.429Z,16.43
2018-04-22T08:32:38.472Z,17.37
2018-04-22T08:35:43.052Z,13.40
2018-04-22T08:38:46.858Z,15.40
2018-04-22T08:41:50.645Z,13.97
2018-04-22T08:44:54.464Z,12.03
2018-04-22T08:47:58.339Z,10.67
2018-04-22T08:51:02.172Z,10.93
2018-04-22T08:54:06.046Z,10.53
2018-04-22T08:57:09.993Z,10.83
2018-04-22T09:00:13.788Z,9.10
2018-04-22T09:03:17.590Z,8.73
2018-04-22T09:06:21.365Z,7.73
2018-04-22T09:09:25.906Z,7.30
2018-04-22T09:12:30.458Z,33.87
2018-04-22T09:15:34.318Z,123.00
2018-04-22T09:18:38.180Z,170.33
2018-04-22T09:21:41.986Z,165.73
2018-04-22T09:24:45.794Z,148.67
2018-04-22T09:27:49.700Z,121.97
2018-04-22T09:30:53.540Z,109.27
2018-04-22T09:33:57.369Z,102.67
2018-04-22T09:37:01.174Z,93.03
2018-04-22T09:40:05.108Z,87.47
2018-04-22T09:43:08.958Z,83.10
2018-04-22T09:46:13.527Z,82.30
2018-04-22T09:49:18.105Z,77.87
2018-04-22T09:52:21.931Z,72.07
2018-04-22T09:55:25.847Z,69.80
2018-04-22T09:58:29.674Z,66.77
2018-04-22T10:01:37.280Z,67.87
2018-04-22T10:04:41.883Z,63.73
2018-04-22T10:07:45.711Z,61.67
2018-04-22T10:10:50.248Z,60.87
2018-04-22T10:13:54.122Z,61.57
2018-04-22T10:16:57.905Z,54.50
2018-04-22T10:20:01.711Z,55.53
2018-04-22T10:23:05.566Z,52.53
2018-04-22T10:26:09.434Z,50.57
2018-04-22T10:29:13.257Z,50.77
2018-04-22T10:32:17.039Z,45.87
2018-04-22T10:35:20.889Z,46.67
2018-04-22T10:38:24.705Z,44.53
2018-04-22T10:41:28.514Z,42.67
2018-04-22T10:44:33.185Z,40.93
2018-04-22T10:47:36.981Z,40.27
2018-04-22T10:50:41.546Z,40.43
2018-04-22T10:53:45.357Z,36.87
2018-04-22T10:56:49.904Z,35.17
2018-04-22T10:59:54.588Z,35.70
2018-04-22T11:02:58.354Z,31.93
2018-04-22T11:06:02.182Z,32.57
2018-04-22T11:09:06.758Z,20.93
2018-04-22T11:12:10.581Z,12.83
2018-04-22T11:15:14.499Z,13.43
2018-04-22T11:18:18.328Z,14.63
2018-04-22T11:21:22.117Z,13.43
2018-04-22T11:24:25.919Z,10.33
2018-04-22T11:27:29.717Z,9.53
2018-04-22T11:30:33.522Z,8.33
2018-04-22T11:33:37.475Z,13.27
2018-04-22T11:36:41.606Z,19.00
2018-04-22T11:39:45.442Z,13.27
2018-04-22T11:42:49.324Z,11.13
2018-04-22T11:45:53.145Z,8.70
2018-04-22T11:48:57.800Z,8.20
2018-04-22T11:52:01.589Z,7.60
2018-04-22T11:55:05.618Z,8.43
2018-04-22T11:58:11.062Z,6.97
2018-04-22T12:01:14.893Z,6.83
2018-04-22T12:04:18.699Z,6.83
2018-04-22T12:07:22.479Z,6.13
2018-04-22T12:10:27.020Z,5.43
2018-04-22T12:13:31.575Z,6.67
2018-04-22T12:16:35.397Z,6.00
2018-04-22T12:19:39.411Z,5.13
2018-04-22T12:22:43.202Z,5.47
2018-04-22T12:25:47.045Z,5.90
2018-04-22T12:28:51.568Z,6.27
2018-04-22T12:31:55.405Z,5.77
2018-04-22T12:34:59.194Z,5.37
2018-04-22T12:38:02.978Z,5.90
2018-04-22T12:41:06.788Z,5.87
2018-04-22T12:44:11.546Z,7.27
2018-04-22T12:47:15.328Z,6.50
2018-04-22T12:50:19.140Z,23.20
2018-04-22T12:53:22.924Z,15.07
2018-04-22T12:56:26.722Z,9.27
2018-04-22T12:59:31.283Z,8.33
2018-04-22T13:02:35.850Z,7.97
2018-04-22T13:05:39.674Z,8.33
2018-04-22T13:08:43.460Z,9.00
2018-04-22T13:11:48.017Z,6.77
2018-04-22T13:14:51.869Z,8.30
2018-04-22T13:17:55.673Z,8.20
2018-04-22T13:20:59.493Z,8.33
2018-04-22T13:24:03.274Z,7.67
2018-04-22T13:27:07.182Z,9.03
2018-04-22T13:30:11.004Z,8.80
2018-04-22T13:33:14.789Z,8.20
2018-04-22T13:36:18.594Z,8.40
2018-04-22T13:39:23.121Z,6.83
2018-04-22T13:42:26.925Z,11.70
2018-04-22T13:45:30.736Z,6.47
2018-04-22T13:48:34.727Z,9.67
2018-04-22T13:51:39.277Z,5.53
2018-04-22T13:54:43.085Z,5.37
2018-04-22T13:57:47.605Z,5.20
2018-04-22T14:00:51.408Z,5.77
2018-04-22T14:03:55.270Z,5.47
2018-04-22T14:06:59.926Z,4.20
2018-04-22T14:10:03.751Z,5.87
2018-04-22T14:13:07.560Z,4.63
2018-04-22T14:16:12.233Z,3.50
2018-04-22T14:19:16.737Z,3.87
2018-04-22T14:22:20.584Z,16.60
2018-04-22T14:25:25.976Z,6.77
2018-04-22T14:28:29.777Z,21.10
2018-04-22T14:31:33.605Z,18.17
2018-04-22T14:34:37.408Z,16.97
2018-04-22T14:37:41.243Z,11.13
2018-04-22T14:40:45.066Z,17.43
2018-04-22T14:47:35.217Z,26.35
2018-04-22T14:50:39.091Z,27.73
2018-04-22T14:53:42.963Z,47.63
2018-04-22T14:56:47.512Z,46.17
2018-04-22T14:59:52.061Z,62.57
2018-04-22T15:02:55.880Z,55.33
2018-04-22T15:05:59.719Z,89.73
2018-04-22T15:09:03.538Z,125.00
2018-04-22T15:12:07.364Z,126.27
2018-04-22T15:15:11.170Z,146.83
2018-04-22T15:18:15.013Z,163.47
2018-04-22T15:21:18.830Z,160.83
2018-04-22T15:24:22.625Z,162.53
2018-04-22T15:27:27.176Z,176.73
2018-04-22T15:30:31.025Z,181.03
2018-04-22T15:33:35.072Z,179.13
2018-04-22T15:36:38.961Z,180.90
2018-04-22T15:39:42.778Z,187.27
2018-04-22T15:42:47.442Z,188.07
2018-04-22T15:45:51.369Z,179.83
2018-04-22T15:48:55.513Z,192.33
2018-04-22T15:51:59.345Z,198.40
2018-04-22T15:55:03.171Z,210.30
2018-04-22T15:58:07.036Z,214.53
2018-04-22T16:01:10.932Z,218.00
2018-04-22T16:04:14.724Z,225.87
2018-04-22T16:07:18.644Z,223.70
2018-04-22T16:10:22.475Z,224.97
2018-04-22T16:13:26.295Z,227.63
2018-04-22T16:16:30.116Z,230.17
2018-04-22T16:19:33.928Z,236.23
2018-04-22T16:22:38.482Z,244.20
2018-04-22T16:25:42.282Z,234.43
2018-04-22T16:28:46.135Z,236.87
2018-04-22T16:31:49.994Z,244.93
2018-04-22T16:34:53.819Z,257.20
2018-04-22T16:37:57.755Z,269.67
2018-04-22T16:41:01.657Z,267.90
2018-04-22T16:44:05.743Z,267.20
2018-04-22T16:47:09.628Z,271.57
2018-04-22T16:50:13.429Z,271.70
2018-04-22T16:53:17.342Z,269.13
2018-04-22T16:56:21.169Z,269.77
2018-04-22T16:59:24.957Z,265.73
2018-04-22T17:02:28.793Z,263.47
2018-04-22T17:05:34.424Z,262.60
2018-04-22T17:08:38.258Z,264.27
2018-04-22T17:11:42.080Z,262.17
2018-04-22T17:14:45.951Z,262.37
2018-04-22T17:17:50.505Z,270.50
2018-04-22T17:20:54.300Z,275.07
2018-04-22T17:23:58.151Z,272.63
2018-04-22T17:27:01.974Z,278.00
2018-04-22T17:30:05.782Z,298.77
2018-04-22T17:33:10.400Z,297.70
2018-04-22T17:36:14.197Z,299.33
2018-04-22T17:39:18.041Z,315.47
2018-04-22T17:42:21.909Z,297.10
2018-04-22T17:45:26.461Z,313.93
2018-04-22T17:48:30.280Z,320.87
2018-04-22T17:51:34.122Z,307.53
2018-04-22T17:54:37.935Z,317.37
2018-04-22T17:57:41.874Z,317.33
2018-04-22T18:00:45.692Z,306.90
2018-04-22T18:03:49.510Z,315.23
2018-04-22T18:06:53.306Z,312.70
2018-04-22T18:09:57.858Z,317.83
2018-04-22T18:13:02.428Z,318.90
2018-04-22T18:16:06.237Z,313.37
2018-04-22T18:19:10.103Z,309.13
2018-04-22T18:22:13.934Z,306.83
2018-04-22T18:25:18.513Z,305.47
2018-04-22T18:28:23.073Z,295.80
2018-04-22T18:31:26.874Z,289.80
2018-04-22T18:34:31.433Z,291.47
2018-04-22T18:37:35.261Z,292.53
2018-04-22T18:40:39.083Z,289.80
2018-04-22T18:43:42.902Z,282.60
2018-04-22T18:46:47.458Z,284.40
2018-04-22T18:49:51.268Z,276.63
2018-04-22T18:52:55.921Z,272.90
2018-04-22T18:55:59.741Z,275.33
2018-04-22T18:59:03.616Z,279.17
2018-04-22T19:02:07.492Z,269.53
2018-04-22T19:05:11.367Z,268.83
2018-04-22T19:08:15.287Z,267.30
2018-04-22T19:11:19.070Z,262.13
2018-04-22T19:14:22.902Z,259.27
2018-04-22T19:17:26.721Z,262.97
2018-04-22T19:20:30.632Z,254.37
2018-04-22T19:23:35.213Z,249.43
2018-04-22T19:26:39.027Z,249.00
2018-04-22T19:29:42.878Z,250.10
2018-04-22T19:32:46.765Z,244.83
2018-04-22T19:35:50.592Z,245.17
2018-04-22T19:38:54.423Z,238.23
2018-04-22T19:41:58.233Z,235.27
2018-04-22T19:45:02.063Z,236.67
2018-04-22T19:48:05.903Z,231.13
2018-04-22T19:51:09.943Z,234.27
2018-04-22T19:54:13.778Z,233.53
2018-04-22T19:57:17.575Z,230.40
2018-04-22T20:00:21.389Z,234.07
2018-04-22T20:03:25.208Z,227.93
2018-04-22T20:06:29.022Z,228.30
2018-04-22T20:09:33.596Z,210.30
2018-04-22T20:12:38.795Z,220.57
2018-04-22T20:15:42.619Z,218.23
2018-04-22T20:18:46.430Z,215.20
2018-04-22T20:21:50.224Z,219.10
2018-04-22T20:24:54.147Z,213.43
2018-04-22T20:27:57.931Z,206.40
2018-04-22T20:31:02.492Z,208.17
2018-04-22T20:34:06.335Z,204.50
2018-04-22T20:37:10.132Z,204.40
2018-04-22T20:40:14.787Z,217.30
2018-04-22T20:43:20.500Z,205.07
2018-04-22T20:46:24.414Z,201.67
2018-04-22T20:49:29.334Z,213.40
2018-04-22T20:52:33.167Z,233.60
2018-04-22T20:55:36.995Z,266.20
2018-04-22T20:58:40.826Z,271.20
2018-04-22T21:01:44.641Z,284.53
2018-04-22T21:04:48.460Z,273.40
2018-04-22T21:07:52.254Z,270.83
2018-04-22T21:10:56.115Z,271.70
2018-04-22T21:13:59.935Z,265.77
2018-04-22T21:17:03.925Z,258.80
2018-04-22T21:20:08.701Z,278.43
2018-04-22T21:23:12.531Z,306.60
2018-04-22T21:26:16.356Z,366.20
2018-04-22T21:29:20.182Z,351.23
2018-04-22T21:32:23.999Z,354.60
2018-04-22T21:35:28.752Z,349.00
2018-04-22T21:38:32.565Z,348.60
2018-04-22T21:41:37.119Z,337.10
2018-04-22T21:44:40.947Z,326.67
2018-04-22T21:47:44.731Z,323.83
2018-04-22T21:50:48.553Z,324.37
2018-04-22T21:53:52.590Z,323.00
2018-04-22T21:56:56.384Z,321.53
2018-04-22T22:00:00.202Z,323.20
2018-04-22T22:03:04.418Z,312.93
2018-04-22T22:06:08.380Z,311.53
2018-04-22T22:09:12.204Z,300.10
2018-04-22T22:12:15.992Z,307.43
2018-04-22T22:15:19.809Z,300.90
2018-04-22T22:18:23.594Z,303.87
2018-04-22T22:21:27.398Z,298.33
2018-04-22T22:24:31.298Z,296.13
2018-04-22T22:27:35.136Z,292.97
2018-04-22T22:30:38.968Z,297.27
2018-04-22T22:33:42.775Z,302.73
2018-04-22T22:36:46.676Z,281.40
2018-04-22T22:39:50.490Z,283.07
2018-04-22T22:42:55.050Z,278.83
2018-04-22T22:45:58.865Z,278.83
2018-04-22T22:49:02.698Z,278.17
2018-04-22T22:52:06.669Z,274.03
2018-04-22T22:55:10.510Z,284.20
2018-04-22T22:58:14.372Z,268.60
2018-04-22T23:01:18.177Z,277.23
2018-04-22T23:04:22.715Z,273.87
2018-04-22T23:07:27.285Z,270.23
2018-04-22T23:10:31.101Z,262.33
2018-04-22T23:13:34.981Z,258.63
2018-04-22T23:16:38.826Z,269.77
2018-04-22T23:19:43.421Z,265.07
2018-04-22T23:22:47.221Z,261.63
2018-04-22T23:25:51.033Z,252.47
2018-04-22T23:28:55.564Z,255.63
2018-04-22T23:32:00.129Z,248.43
2018-04-22T23:35:04.232Z,254.27
2018-04-22T23:38:08.797Z,250.70
2018-04-22T23:41:12.627Z,252.43
2018-04-22T23:44:16.435Z,251.00
2018-04-22T23:47:21.113Z,249.03
2018-04-22T23:50:24.940Z,250.67
2018-04-22T23:53:28.741Z,242.30
2018-04-22T23:56:33.574Z,241.53
2018-04-22T23:59:38.330Z,244.47
